createdAt,value
2018-03-03T00:02:16.188Z,-4.14
2018-03-03T00:04:43.660Z,-4.17
2018-03-03T00:07:11.157Z,-4.16
2018-03-03T00:09:39.432Z,-4.15
2018-03-03T00:12:06.955Z,-4.06
2018-03-03T00:14:34.583Z,-4.01
2018-03-03T00:17:02.081Z,-4.06
2018-03-03T00:19:29.563Z,-3.99
2018-03-03T00:21:57.129Z,-4.01
2018-03-03T00:24:24.853Z,-4.00
2018-03-03T00:26:52.329Z,-4.06
2018-03-03T00:29:19.818Z,-4.09
2018-03-03T00:31:47.341Z,-4.08
2018-03-03T00:34:15.082Z,-3.93
2018-03-03T00:36:42.576Z,-4.05
2018-03-03T00:39:10.084Z,-4.03
2018-03-03T00:41:37.542Z,-4.02
2018-03-03T00:44:05.021Z,-4.07
2018-03-03T00:46:32.495Z,-4.10
2018-03-03T00:48:59.973Z,-4.11
2018-03-03T00:51:27.440Z,-4.16
2018-03-03T00:53:54.903Z,-4.07
2018-03-03T00:56:22.471Z,-4.08
2018-03-03T00:58:49.992Z,-4.12
2018-03-03T01:01:17.460Z,-4.20
2018-03-03T01:03:44.933Z,-4.15
2018-03-03T01:06:12.431Z,-4.14
2018-03-03T01:08:40.120Z,-4.17
2018-03-03T01:11:07.599Z,-4.12
2018-03-03T01:13:35.070Z,-4.09
2018-03-03T01:16:02.533Z,-4.08
2018-03-03T01:18:30.060Z,-4.08
2018-03-03T01:20:57.518Z,-4.11
2018-03-03T01:23:25.047Z,-4.04
2018-03-03T01:25:52.522Z,-4.08
2018-03-03T01:28:19.986Z,-4.20
2018-03-03T01:30:47.470Z,-4.06
2018-03-03T01:33:15.069Z,-3.98
2018-03-03T01:35:42.541Z,-3.99
2018-03-03T01:38:10.036Z,-3.96
2018-03-03T01:40:37.563Z,-3.90
2018-03-03T01:43:05.059Z,-3.91
2018-03-03T01:45:32.524Z,-3.89
2018-03-03T01:48:00.008Z,-3.87
2018-03-03T01:50:27.524Z,-3.80
2018-03-03T01:52:54.992Z,-3.90
2018-03-03T01:55:22.533Z,-3.86
2018-03-03T01:57:50.020Z,-3.86
2018-03-03T02:00:17.479Z,-3.91
2018-03-03T02:02:44.974Z,-3.75
2018-03-03T02:05:12.480Z,-3.73
2018-03-03T02:07:39.953Z,-3.79
2018-03-03T02:10:07.440Z,-3.72
2018-03-03T02:12:34.927Z,-3.84
2018-03-03T02:15:02.413Z,-3.77
2018-03-03T02:17:29.934Z,-3.84
2018-03-03T02:19:57.543Z,-3.76
2018-03-03T02:22:25.012Z,-3.86
2018-03-03T02:24:52.503Z,-3.81
2018-03-03T02:27:19.955Z,-3.83
2018-03-03T02:29:47.432Z,-3.88
2018-03-03T02:32:15.019Z,-3.88
2018-03-03T02:34:42.492Z,-3.83
2018-03-03T02:37:09.974Z,-3.78
2018-03-03T02:39:37.457Z,-3.79
2018-03-03T02:42:04.930Z,-3.82
2018-03-03T02:44:32.401Z,-3.67
2018-03-03T02:46:59.988Z,-3.68
2018-03-03T02:49:27.443Z,-3.80
2018-03-03T02:51:54.922Z,-3.78
2018-03-03T02:54:22.438Z,-3.78
2018-03-03T02:56:49.943Z,-3.68
2018-03-03T02:59:17.400Z,-3.59
2018-03-03T03:01:44.875Z,-3.64
2018-03-03T03:04:12.340Z,-3.60
2018-03-03T03:06:39.818Z,-3.63
2018-03-03T03:09:07.312Z,-3.53
2018-03-03T03:11:34.795Z,-3.59
2018-03-03T03:14:02.248Z,-3.59
2018-03-03T03:16:30.619Z,-3.58
2018-03-03T03:18:58.097Z,-3.72
2018-03-03T03:21:25.553Z,-3.60
2018-03-03T03:23:53.074Z,-3.52
2018-03-03T03:26:20.544Z,-3.61
2018-03-03T03:28:48.004Z,-3.46
2018-03-03T03:31:15.489Z,-3.53
2018-03-03T03:33:42.967Z,-3.54
2018-03-03T03:36:10.443Z,-3.49
2018-03-03T03:38:37.899Z,-3.38
2018-03-03T03:41:05.405Z,-3.53
2018-03-03T03:43:32.920Z,-3.44
2018-03-03T03:46:00.428Z,-3.58
2018-03-03T03:48:27.906Z,-3.59
2018-03-03T03:50:55.385Z,-3.59
2018-03-03T03:53:22.835Z,-3.53
2018-03-03T03:55:50.340Z,-3.52
2018-03-03T03:58:17.795Z,-3.62
2018-03-03T04:00:45.267Z,-3.58
2018-03-03T04:03:12.871Z,-3.54
2018-03-03T04:05:40.343Z,-3.65
2018-03-03T04:08:07.809Z,-3.50
2018-03-03T04:10:35.299Z,-3.60
2018-03-03T04:13:02.792Z,-3.58
2018-03-03T04:15:30.357Z,-3.63
2018-03-03T04:17:57.871Z,-3.63
2018-03-03T04:20:25.490Z,-3.63
2018-03-03T04:22:52.955Z,-3.61
2018-03-03T04:25:20.446Z,-3.56
2018-03-03T04:27:47.931Z,-3.57
2018-03-03T04:30:15.407Z,-3.61
2018-03-03T04:32:42.865Z,-3.57
2018-03-03T04:35:10.380Z,-3.53
2018-03-03T04:37:37.942Z,-3.56
2018-03-03T04:40:05.451Z,-3.54
2018-03-03T04:42:32.946Z,-3.50
2018-03-03T04:45:00.421Z,-3.54
2018-03-03T04:47:27.895Z,-3.43
2018-03-03T04:49:55.353Z,-3.57
2018-03-03T04:52:22.866Z,-3.57
2018-03-03T04:54:50.347Z,-3.62
2018-03-03T04:57:17.805Z,-3.58
2018-03-03T05:02:54.422Z,-3.55
2018-03-03T05:05:26.379Z,-3.51
2018-03-03T05:07:55.764Z,-3.55
2018-03-03T05:10:23.690Z,-3.60
2018-03-03T05:16:17.584Z,-3.64
2018-03-03T05:18:51.526Z,-3.70
2018-03-03T05:21:23.548Z,-3.62
2018-03-03T05:23:56.487Z,-3.62
2018-03-03T05:29:38.144Z,-3.69
2018-03-03T05:32:11.122Z,-3.70
2018-03-03T05:37:48.609Z,-3.73
2018-03-03T05:40:21.622Z,-3.79
2018-03-03T05:45:55.940Z,-3.81
2018-03-03T05:48:38.294Z,-3.82
2018-03-03T05:51:09.383Z,-3.74
2018-03-03T05:53:40.286Z,-3.77
2018-03-03T05:56:21.562Z,-3.76
2018-03-03T05:58:57.555Z,-3.78
2018-03-03T06:01:30.605Z,-3.65
2018-03-03T06:04:03.739Z,-3.69
2018-03-03T06:06:32.134Z,-3.64
2018-03-03T06:09:14.655Z,-3.66
2018-03-03T06:11:42.180Z,-3.59
2018-03-03T06:14:09.653Z,-3.61
2018-03-03T06:16:37.175Z,-3.48
2018-03-03T06:19:04.632Z,-3.58
2018-03-03T06:21:32.088Z,-3.47
2018-03-03T06:23:59.542Z,-3.44
2018-03-03T06:26:27.028Z,-3.38
2018-03-03T06:28:54.480Z,-3.32
2018-03-03T06:31:21.958Z,-3.39
2018-03-03T06:33:49.449Z,-3.28
2018-03-03T06:36:16.918Z,-3.36
2018-03-03T06:38:44.402Z,-3.17
2018-03-03T06:41:11.875Z,-3.36
2018-03-03T06:43:39.383Z,-3.40
2018-03-03T06:46:06.927Z,-3.44
2018-03-03T06:48:34.418Z,-3.37
2018-03-03T06:51:01.932Z,-3.32
2018-03-03T06:53:29.406Z,-3.26
2018-03-03T06:55:56.903Z,-3.21
2018-03-03T06:58:24.386Z,-3.26
2018-03-03T07:00:52.663Z,-3.40
2018-03-03T07:03:20.138Z,-3.40
2018-03-03T07:05:47.604Z,-3.23
2018-03-03T07:08:15.279Z,-3.17
2018-03-03T07:10:42.786Z,-3.33
2018-03-03T07:13:10.265Z,-3.39
2018-03-03T07:15:37.770Z,-3.36
2018-03-03T07:18:05.289Z,-3.28
2018-03-03T07:20:33.252Z,-3.17
2018-03-03T07:23:00.735Z,-2.89
2018-03-03T07:25:28.246Z,-2.75
2018-03-03T07:27:55.752Z,-2.69
2018-03-03T07:30:27.721Z,-2.71
2018-03-03T07:32:55.232Z,-2.68
2018-03-03T07:35:22.709Z,-2.60
2018-03-03T07:37:50.197Z,-2.49
2018-03-03T07:40:17.677Z,-2.52
2018-03-03T07:42:45.237Z,-2.69
2018-03-03T07:45:12.719Z,-2.45
2018-03-03T07:47:40.273Z,-2.36
2018-03-03T07:50:07.749Z,-2.24
2018-03-03T07:52:35.454Z,-2.08
2018-03-03T07:55:02.992Z,-1.98
2018-03-03T07:57:30.487Z,-1.98
2018-03-03T07:59:57.991Z,-1.94
2018-03-03T08:02:25.465Z,-1.88
2018-03-03T08:04:52.968Z,-1.65
2018-03-03T08:07:20.676Z,-1.63
2018-03-03T08:09:48.192Z,-1.43
2018-03-03T08:12:15.674Z,-1.30
2018-03-03T08:14:43.157Z,-1.44
2018-03-03T08:17:13.025Z,-1.34
2018-03-03T08:19:42.152Z,-1.41
2018-03-03T08:22:09.701Z,-1.45
2018-03-03T08:24:38.866Z,-1.07
2018-03-03T08:27:06.583Z,-0.93
2018-03-03T08:29:39.733Z,-0.93
2018-03-03T08:32:07.248Z,-0.89
2018-03-03T08:34:35.222Z,-0.64
2018-03-03T08:37:02.744Z,-0.43
2018-03-03T08:39:30.241Z,-0.39
2018-03-03T08:41:57.770Z,-0.26
2018-03-03T08:44:25.294Z,-0.13
2018-03-03T08:46:54.104Z,-0.19
2018-03-03T08:49:21.639Z,-0.36
2018-03-03T08:51:49.289Z,-0.11
2018-03-03T08:54:16.783Z,-0.05
2018-03-03T08:56:44.299Z,-0.15
2018-03-03T08:59:11.848Z,-0.15
2018-03-03T09:01:39.359Z,-0.08
2018-03-03T09:04:06.856Z,-0.40
2018-03-03T09:06:34.433Z,-0.39
2018-03-03T09:09:01.940Z,-0.03
2018-03-03T09:11:29.409Z,0.08
2018-03-03T09:13:56.882Z,0.25
2018-03-03T09:16:24.367Z,0.33
2018-03-03T09:18:51.846Z,0.34
2018-03-03T09:21:19.386Z,0.46
2018-03-03T09:23:46.867Z,0.70
2018-03-03T09:26:14.597Z,0.97
2018-03-03T09:28:42.091Z,0.93
2018-03-03T09:31:09.576Z,1.05
2018-03-03T09:33:37.127Z,0.81
2018-03-03T09:36:04.675Z,0.92
2018-03-03T09:38:32.350Z,0.80
2018-03-03T09:40:59.807Z,0.64
2018-03-03T09:43:27.392Z,0.72
2018-03-03T09:45:54.852Z,0.70
2018-03-03T09:48:22.332Z,0.77
2018-03-03T09:50:49.829Z,0.98
2018-03-03T09:53:17.370Z,1.00
2018-03-03T09:55:44.865Z,1.00
2018-03-03T09:58:12.453Z,1.20
2018-03-03T10:00:39.964Z,1.07
2018-03-03T10:03:07.520Z,1.07
2018-03-03T10:05:35.029Z,1.10
2018-03-03T10:08:02.519Z,1.18
2018-03-03T10:10:30.187Z,1.05
2018-03-03T10:12:57.655Z,1.19
2018-03-03T10:15:25.133Z,1.05
2018-03-03T10:17:52.629Z,1.29
2018-03-03T10:20:20.102Z,1.32
2018-03-03T10:22:47.574Z,1.61
2018-03-03T10:25:15.399Z,1.91
2018-03-03T10:27:42.863Z,2.01
2018-03-03T10:30:10.360Z,2.05
2018-03-03T10:32:37.854Z,1.80
2018-03-03T10:35:05.396Z,1.75
2018-03-03T10:37:32.911Z,1.74
2018-03-03T10:40:00.428Z,1.84
2018-03-03T10:42:28.021Z,1.84
2018-03-03T10:44:55.520Z,1.86
2018-03-03T10:47:23.064Z,2.13
2018-03-03T10:49:50.520Z,2.21
2018-03-03T10:52:17.999Z,2.29
2018-03-03T10:54:45.641Z,2.47
2018-03-03T10:57:13.202Z,2.65
2018-03-03T10:59:40.672Z,2.48
2018-03-03T11:02:08.112Z,2.61
2018-03-03T11:04:35.588Z,2.68
2018-03-03T11:07:03.058Z,2.82
2018-03-03T11:09:30.574Z,2.94
2018-03-03T11:11:58.055Z,2.68
2018-03-03T11:14:25.572Z,2.84
2018-03-03T11:16:53.034Z,2.70
2018-03-03T11:19:20.558Z,2.69
2018-03-03T11:21:48.024Z,2.76
2018-03-03T11:24:15.505Z,2.85
2018-03-03T11:26:43.087Z,2.80
2018-03-03T11:29:10.567Z,2.90
2018-03-03T11:31:38.047Z,2.96
2018-03-03T11:34:05.523Z,2.88
2018-03-03T11:36:32.979Z,2.87
2018-03-03T11:39:00.445Z,2.85
2018-03-03T11:41:27.914Z,2.83
2018-03-03T11:43:55.411Z,2.47
2018-03-03T11:46:22.912Z,2.20
2018-03-03T11:48:50.466Z,2.22
2018-03-03T11:51:18.006Z,2.18
2018-03-03T11:53:45.531Z,2.09
2018-03-03T11:56:13.165Z,2.10
2018-03-03T12:14:52.686Z,1.88
2018-03-03T12:17:20.222Z,2.18
2018-03-03T12:19:47.744Z,1.96
2018-03-03T12:22:15.349Z,2.16
2018-03-03T12:24:43.007Z,2.26
2018-03-03T12:27:11.036Z,2.27
2018-03-03T12:29:38.547Z,2.56
2018-03-03T12:32:06.017Z,2.66
2018-03-03T12:34:33.539Z,2.90
2018-03-03T12:37:01.095Z,3.02
2018-03-03T12:39:28.584Z,3.13
2018-03-03T12:41:56.072Z,3.18
2018-03-03T12:44:23.525Z,3.24
2018-03-03T12:46:51.007Z,2.75
2018-03-03T12:49:18.547Z,2.39
2018-03-03T12:51:46.018Z,2.31
2018-03-03T12:54:13.477Z,2.47
2018-03-03T12:56:40.939Z,2.22
2018-03-03T12:59:08.396Z,2.23
2018-03-03T13:01:35.880Z,2.23
2018-03-03T13:04:03.360Z,2.12
2018-03-03T13:06:30.815Z,2.30
2018-03-03T13:08:58.284Z,2.62
2018-03-03T13:11:25.787Z,2.58
2018-03-03T13:13:53.275Z,2.37
2018-03-03T13:16:20.779Z,2.74
2018-03-03T13:18:48.243Z,2.64
2018-03-03T13:21:15.759Z,2.47
2018-03-03T13:23:43.238Z,2.36
2018-03-03T13:26:10.693Z,2.14
2018-03-03T13:28:38.164Z,2.01
2018-03-03T13:31:05.618Z,1.80
2018-03-03T13:33:33.160Z,1.73
2018-03-03T13:36:00.633Z,1.75
2018-03-03T13:38:28.126Z,1.58
2018-03-03T13:40:55.590Z,1.61
2018-03-03T13:43:24.307Z,1.64
2018-03-03T13:45:55.707Z,1.71
2018-03-03T13:48:23.314Z,1.83
2018-03-03T13:50:56.307Z,2.14
2018-03-03T13:53:23.820Z,2.31
2018-03-03T13:55:51.275Z,2.25
2018-03-03T13:58:18.787Z,2.15
2018-03-03T14:00:46.271Z,1.92
2018-03-03T14:03:13.716Z,1.82
2018-03-03T14:05:41.216Z,1.69
2018-03-03T14:08:08.697Z,1.63
2018-03-03T14:10:36.207Z,1.60
2018-03-03T14:13:03.691Z,1.57
2018-03-03T14:15:31.169Z,1.60
2018-03-03T14:17:58.704Z,1.55
2018-03-03T14:20:27.894Z,1.60
2018-03-03T14:22:56.541Z,1.53
2018-03-03T14:25:24.643Z,1.55
2018-03-03T14:27:55.712Z,1.61
2018-03-03T14:30:23.823Z,1.51
2018-03-03T14:32:55.384Z,1.55
2018-03-03T14:35:30.028Z,1.47
2018-03-03T14:38:00.108Z,1.41
2018-03-03T14:40:28.862Z,1.56
2018-03-03T14:42:57.311Z,1.80
2018-03-03T14:45:27.104Z,1.79
2018-03-03T14:47:54.606Z,1.77
2018-03-03T14:50:22.163Z,1.79
2018-03-03T14:52:49.636Z,1.81
2018-03-03T14:55:17.089Z,1.86
2018-03-03T14:57:44.596Z,1.74
2018-03-03T15:00:12.131Z,1.74
2018-03-03T15:02:40.430Z,1.70
2018-03-03T15:05:07.907Z,1.63
2018-03-03T15:07:35.388Z,1.60
2018-03-03T15:10:02.877Z,1.61
2018-03-03T15:12:30.355Z,1.70
2018-03-03T15:14:57.846Z,1.53
2018-03-03T15:17:25.315Z,1.47
2018-03-03T15:19:52.827Z,1.42
2018-03-03T15:22:20.336Z,1.42
2018-03-03T15:24:48.091Z,1.45
2018-03-03T15:27:16.447Z,1.60
2018-03-03T15:29:43.971Z,1.46
2018-03-03T15:32:11.454Z,1.49
2018-03-03T15:34:38.898Z,1.46
2018-03-03T15:37:06.361Z,1.36
2018-03-03T15:39:33.885Z,1.26
2018-03-03T15:42:01.351Z,1.22
2018-03-03T15:44:28.837Z,1.01
2018-03-03T15:46:56.340Z,0.98
2018-03-03T15:49:23.818Z,0.87
2018-03-03T15:51:51.286Z,0.89
2018-03-03T15:54:18.748Z,1.01
2018-03-03T15:56:46.204Z,0.98
2018-03-03T15:59:13.701Z,0.90
2018-03-03T16:01:41.207Z,0.82
2018-03-03T16:04:08.689Z,0.62
2018-03-03T16:06:36.256Z,0.53
2018-03-03T16:09:03.835Z,0.47
2018-03-03T16:11:31.293Z,0.42
2018-03-03T16:13:58.795Z,0.37
2018-03-03T16:16:26.276Z,0.31
2018-03-03T16:18:53.819Z,0.28
2018-03-03T16:21:22.476Z,0.30
2018-03-03T16:23:50.024Z,0.20
2018-03-03T16:26:17.814Z,0.19
2018-03-03T16:28:45.352Z,0.20
2018-03-03T16:31:12.822Z,0.09
2018-03-03T16:33:40.416Z,0.03
2018-03-03T16:36:07.902Z,0.00
2018-03-03T16:38:35.403Z,-0.07
2018-03-03T16:41:02.871Z,-0.07
2018-03-03T16:43:30.412Z,-0.11
2018-03-03T16:45:57.889Z,-0.14
2018-03-03T16:48:25.906Z,-0.21
2018-03-03T16:50:53.398Z,-0.25
2018-03-03T16:53:20.927Z,-0.03
2018-03-03T16:55:48.399Z,-0.10
2018-03-03T16:58:16.491Z,-0.11
2018-03-03T17:00:45.171Z,-0.15
2018-03-03T17:03:12.681Z,-0.17
2018-03-03T17:05:40.174Z,-0.22
2018-03-03T17:08:07.661Z,-0.25
2018-03-03T17:10:35.107Z,-0.28
2018-03-03T17:13:02.598Z,-0.39
2018-03-03T17:15:30.111Z,-0.40
2018-03-03T17:17:57.606Z,-0.27
2018-03-03T17:20:25.114Z,-0.36
2018-03-03T17:22:52.661Z,-0.39
2018-03-03T17:25:20.154Z,-0.39
2018-03-03T17:27:49.125Z,-0.42
2018-03-03T17:30:16.672Z,-0.36
2018-03-03T17:32:44.147Z,-0.45
2018-03-03T17:35:11.601Z,-0.59
2018-03-03T17:37:39.085Z,-0.61
2018-03-03T17:40:06.565Z,-0.56
2018-03-03T17:42:34.056Z,-0.59
2018-03-03T17:45:01.623Z,-0.67
2018-03-03T17:47:29.072Z,-0.66
2018-03-03T17:49:56.564Z,-0.78
2018-03-03T17:52:24.793Z,-0.72
2018-03-03T17:54:52.348Z,-0.77
2018-03-03T17:57:19.831Z,-0.78
2018-03-03T17:59:47.320Z,-0.78
2018-03-03T18:02:14.810Z,-0.85
2018-03-03T18:04:42.275Z,-0.92
2018-03-03T18:07:09.846Z,-0.88
2018-03-03T18:09:37.298Z,-0.94
2018-03-03T18:12:05.716Z,-1.00
2018-03-03T18:14:35.770Z,-1.06
2018-03-03T18:17:03.395Z,-1.02
2018-03-03T18:19:34.405Z,-1.00
2018-03-03T18:22:01.912Z,-0.93
2018-03-03T18:24:37.461Z,-1.02
2018-03-03T18:27:04.934Z,-1.04
2018-03-03T18:29:32.426Z,-1.11
2018-03-03T18:31:59.913Z,-1.21
2018-03-03T18:34:27.392Z,-1.20
2018-03-03T18:36:55.116Z,-1.23
2018-03-03T18:39:22.723Z,-1.30
2018-03-03T18:41:50.593Z,-1.32
2018-03-03T18:44:18.280Z,-1.23
2018-03-03T18:46:46.177Z,-1.21
2018-03-03T18:49:13.679Z,-1.29
2018-03-03T18:51:41.300Z,-1.39
2018-03-03T18:54:08.784Z,-1.47
2018-03-03T18:56:38.004Z,-1.44
2018-03-03T18:59:05.742Z,-1.52
2018-03-03T19:01:33.327Z,-1.49
2018-03-03T19:04:00.882Z,-1.56
2018-03-03T19:06:28.443Z,-1.56
2018-03-03T19:08:55.986Z,-1.50
2018-03-03T19:11:23.560Z,-1.47
2018-03-03T19:13:51.110Z,-1.55
2018-03-03T19:16:18.656Z,-1.55
2018-03-03T19:18:46.753Z,-1.58
2018-03-03T19:21:14.334Z,-1.53
2018-03-03T19:23:47.197Z,-1.53
2018-03-03T19:26:14.866Z,-1.58
2018-03-03T19:28:42.531Z,-1.68
2018-03-03T19:31:11.086Z,-1.64
2018-03-03T19:33:38.811Z,-1.66
2018-03-03T19:36:06.320Z,-1.62
2018-03-03T19:38:33.916Z,-1.65
2018-03-03T19:41:01.414Z,-1.67
2018-03-03T19:43:28.887Z,-1.69
2018-03-03T19:45:56.359Z,-1.66
2018-03-03T19:48:28.860Z,-1.69
2018-03-03T19:50:56.863Z,-1.66
2018-03-03T19:53:24.384Z,-1.70
2018-03-03T19:55:52.225Z,-1.73
2018-03-03T19:58:20.124Z,-1.73
2018-03-03T20:00:47.855Z,-1.65
2018-03-03T20:03:15.718Z,-1.78
2018-03-03T20:05:43.256Z,-1.83
2018-03-03T20:08:10.819Z,-1.94
2018-03-03T20:10:38.294Z,-1.87
2018-03-03T20:13:05.975Z,-1.87
2018-03-03T20:15:33.461Z,-1.87
2018-03-03T20:18:00.958Z,-1.91
2018-03-03T20:20:28.564Z,-1.94
2018-03-03T20:22:56.072Z,-1.93
2018-03-03T20:25:23.710Z,-1.98
2018-03-03T20:27:51.169Z,-2.01
2018-03-03T20:30:18.652Z,-2.05
2018-03-03T20:32:46.752Z,-2.01
2018-03-03T20:35:14.225Z,-1.98
2018-03-03T20:37:41.714Z,-2.08
2018-03-03T20:40:09.206Z,-2.17
2018-03-03T20:42:36.732Z,-2.05
2018-03-03T20:45:04.201Z,-2.03
2018-03-03T20:47:31.684Z,-1.98
2018-03-03T20:49:59.245Z,-2.03
2018-03-03T20:52:26.768Z,-2.04
2018-03-03T20:54:54.272Z,-2.04
2018-03-03T20:57:21.795Z,-2.02
2018-03-03T20:59:49.341Z,-2.02
2018-03-03T21:02:16.973Z,-2.04
2018-03-03T21:04:44.439Z,-2.07
2018-03-03T21:07:11.933Z,-2.10
2018-03-03T21:09:39.432Z,-2.12
2018-03-03T21:12:08.454Z,-2.19
2018-03-03T21:14:36.133Z,-2.20
2018-03-03T21:17:03.594Z,-2.17
2018-03-03T21:19:31.052Z,-2.30
2018-03-03T21:21:58.695Z,-2.16
2018-03-03T21:24:26.255Z,-2.25
2018-03-03T21:26:53.791Z,-2.30
2018-03-03T21:29:21.304Z,-2.34
2018-03-03T21:31:48.896Z,-2.44
2018-03-03T21:34:16.436Z,-2.43
2018-03-03T21:36:44.060Z,-2.56
2018-03-03T21:39:11.828Z,-2.66
2018-03-03T21:41:39.354Z,-2.66
2018-03-03T21:44:06.936Z,-2.64
2018-03-03T21:46:35.282Z,-2.55
2018-03-03T21:49:03.468Z,-2.54
2018-03-03T21:51:30.972Z,-2.67
2018-03-03T21:53:58.429Z,-2.64
2018-03-03T21:56:26.006Z,-2.69
2018-03-03T21:58:53.636Z,-2.80
2018-03-03T22:01:21.125Z,-2.91
2018-03-03T22:03:48.601Z,-2.90
2018-03-03T22:06:16.947Z,-2.91
2018-03-03T22:08:44.542Z,-3.01
2018-03-03T22:11:12.039Z,-2.99
2018-03-03T22:13:39.601Z,-2.96
2018-03-03T22:16:07.094Z,-3.09
2018-03-03T22:18:34.556Z,-3.03
2018-03-03T22:21:02.068Z,-3.01
2018-03-03T22:23:29.562Z,-3.03
2018-03-03T22:25:57.141Z,-3.14
2018-03-03T22:28:24.647Z,-3.16
2018-03-03T22:30:52.196Z,-3.11
2018-03-03T22:33:19.725Z,-3.02
2018-03-03T22:35:47.279Z,-3.01
2018-03-03T22:38:15.002Z,-3.09
2018-03-03T22:40:42.554Z,-3.07
2018-03-03T22:43:10.031Z,-3.08
2018-03-03T22:45:37.528Z,-3.02
2018-03-03T22:48:05.582Z,-3.17
2018-03-03T22:50:33.905Z,-3.25
2018-03-03T22:53:01.447Z,-3.35
2018-03-03T22:55:29.019Z,-3.36
2018-03-03T22:57:56.497Z,-3.30
2018-03-03T23:00:27.273Z,-3.32
2018-03-03T23:02:54.914Z,-3.35
2018-03-03T23:05:22.390Z,-3.28
2018-03-03T23:07:49.904Z,-3.32
2018-03-03T23:12:49.121Z,-3.40
2018-03-03T23:15:16.662Z,-3.28
2018-03-03T23:17:44.178Z,-3.26
2018-03-03T23:20:12.665Z,-3.30
2018-03-03T23:22:40.208Z,-3.40
2018-03-03T23:25:07.834Z,-3.35
2018-03-03T23:27:37.946Z,-3.37
2018-03-03T23:30:05.437Z,-3.40
2018-03-03T23:32:33.019Z,-3.33
2018-03-03T23:35:00.507Z,-3.35
2018-03-03T23:37:27.982Z,-3.29
2018-03-03T23:39:56.021Z,-3.34
2018-03-03T23:42:23.880Z,-3.29
2018-03-03T23:44:52.175Z,-3.14
2018-03-03T23:47:19.680Z,-3.05
2018-03-03T23:49:47.231Z,-3.19
2018-03-03T23:52:14.977Z,-3.23
2018-03-03T23:54:43.649Z,-3.15
2018-03-03T23:57:11.202Z,-3.15
2018-03-03T23:59:38.754Z,-3.25
